sensor_id;sensor_type;location;lat;lon;timestamp;pressure;altitude;pressure_sealevel;temperature;humidity
69737;BME280;64476;55.004;73.342;2022-12-24T00:01:23;101518.97;;;-0.98;59.42
69737;BME280;64476;55.004;73.342;2022-12-24T00:04:30;101515.53;;;-0.97;60.34
69737;BME280;64476;55.004;73.342;2022-12-24T00:07:31;101512.81;;;-0.90;60.09
69737;BME280;64476;55.004;73.342;2022-12-24T00:10:42;101517.75;;;-0.83;60.05
69737;BME280;64476;55.004;73.342;2022-12-24T00:13:45;101516.72;;;-0.76;59.88
69737;BME280;64476;55.004;73.342;2022-12-24T00:16:46;101520.06;;;-0.72;59.47
69737;BME280;64476;55.004;73.342;2022-12-24T00:19:48;101527.63;;;-0.67;60.12
69737;BME280;64476;55.004;73.342;2022-12-24T00:22:50;101531.72;;;-0.60;59.67
69737;BME280;64476;55.004;73.342;2022-12-24T00:25:56;101531.72;;;-0.60;59.63
69737;BME280;64476;55.004;73.342;2022-12-24T00:29:04;101524.78;;;-0.57;59.66
69737;BME280;64476;55.004;73.342;2022-12-24T00:32:15;101532.34;;;-0.52;59.78
69737;BME280;64476;55.004;73.342;2022-12-24T00:35:17;101532.28;;;-0.49;59.30
69737;BME280;64476;55.004;73.342;2022-12-24T00:38:18;101533.97;;;-0.48;59.40
69737;BME280;64476;55.004;73.342;2022-12-24T00:41:20;101539.22;;;-0.53;60.17
69737;BME280;64476;55.004;73.342;2022-12-24T00:44:27;101542.53;;;-0.47;59.74
69737;BME280;64476;55.004;73.342;2022-12-24T00:47:28;101546.69;;;-0.43;59.89
69737;BME280;64476;55.004;73.342;2022-12-24T00:50:29;101536.59;;;-0.50;60.42
69737;BME280;64476;55.004;73.342;2022-12-24T00:53:31;101534.09;;;-0.53;59.65
69737;BME280;64476;55.004;73.342;2022-12-24T00:56:32;101540.81;;;-0.49;60.27
69737;BME280;64476;55.004;73.342;2022-12-24T00:59:40;101544.97;;;-0.43;59.79
69737;BME280;64476;55.004;73.342;2022-12-24T01:02:47;101542.31;;;-0.40;60.31
69737;BME280;64476;55.004;73.342;2022-12-24T01:05:58;101537.06;;;-0.35;59.79
69737;BME280;64476;55.004;73.342;2022-12-24T01:09:00;101541.22;;;-0.31;59.69
69737;BME280;64476;55.004;73.342;2022-12-24T01:12:07;101538.53;;;-0.27;60.26
69737;BME280;64476;55.004;73.342;2022-12-24T01:15:08;101538.47;;;-0.23;60.28
69737;BME280;64476;55.004;73.342;2022-12-24T01:18:14;101541.84;;;-0.21;59.95
69737;BME280;64476;55.004;73.342;2022-12-24T01:21:15;101542.59;;;-0.18;59.79
69737;BME280;64476;55.004;73.342;2022-12-24T01:24:17;101538.16;;;-0.13;59.75
69737;BME280;64476;55.004;73.342;2022-12-24T01:27:18;101538.94;;;-0.09;59.55
69737;BME280;64476;55.004;73.342;2022-12-24T01:30:51;101541.41;;;-0.06;59.42
69737;BME280;64476;55.004;73.342;2022-12-24T01:33:52;101549.91;;;-0.04;60.09
69737;BME280;64476;55.004;73.342;2022-12-24T01:36:54;101554.97;;;-0.01;59.93
69737;BME280;64476;55.004;73.342;2022-12-24T01:40:05;101550.59;;;0.03;59.62
69737;BME280;64476;55.004;73.342;2022-12-24T01:43:27;101547.09;;;0.05;59.36
69737;BME280;64476;55.004;73.342;2022-12-24T01:46:28;101546.19;;;0.08;59.26
69737;BME280;64476;55.004;73.342;2022-12-24T01:49:31;101536.78;;;0.07;59.21
69737;BME280;64476;55.004;73.342;2022-12-24T01:52:33;101539.34;;;0.07;59.13
69737;BME280;64476;55.004;73.342;2022-12-24T01:55:40;101552.94;;;0.10;59.24
69737;BME280;64476;55.004;73.342;2022-12-24T01:58:43;101556.25;;;0.14;59.29
69737;BME280;64476;55.004;73.342;2022-12-24T02:01:46;101557.00;;;0.17;59.39
69737;BME280;64476;55.004;73.342;2022-12-24T02:05:02;101562.16;;;0.17;58.98
69737;BME280;64476;55.004;73.342;2022-12-24T02:08:08;101559.59;;;0.17;59.38
69737;BME280;64476;55.004;73.342;2022-12-24T02:11:11;101558.66;;;0.20;59.46
69737;BME280;64476;55.004;73.342;2022-12-24T02:14:12;101560.31;;;0.22;59.19
69737;BME280;64476;55.004;73.342;2022-12-24T02:17:29;101570.59;;;0.22;59.58
69737;BME280;64476;55.004;73.342;2022-12-24T02:27:07;101580.66;;;0.29;59.27
69737;BME280;64476;55.004;73.342;2022-12-24T02:30:13;101586.63;;;0.31;59.40
69737;BME280;64476;55.004;73.342;2022-12-24T02:33:32;101587.41;;;0.33;59.28
69737;BME280;64476;55.004;73.342;2022-12-24T02:40:10;101600.97;;;0.38;59.19
69737;BME280;64476;55.004;73.342;2022-12-24T02:43:14;101599.19;;;0.40;58.46
69737;BME280;64476;55.004;73.342;2022-12-24T02:46:54;101604.22;;;0.44;59.07
69737;BME280;64476;55.004;73.342;2022-12-24T02:49:58;101616.13;;;0.47;58.85
69737;BME280;64476;55.004;73.342;2022-12-24T02:53:00;101606.66;;;0.49;58.71
69737;BME280;64476;55.004;73.342;2022-12-24T03:05:34;101627.13;;;0.52;58.77
69737;BME280;64476;55.004;73.342;2022-12-24T03:08:53;101634.84;;;0.51;58.93
69737;BME280;64476;55.004;73.342;2022-12-24T03:15:36;101638.25;;;0.51;58.42
69737;BME280;64476;55.004;73.342;2022-12-24T03:18:39;101634.84;;;0.51;58.20
69737;BME280;64476;55.004;73.342;2022-12-24T03:21:42;101636.56;;;0.52;59.08
69737;BME280;64476;55.004;73.342;2022-12-24T03:24:44;101634.84;;;0.51;58.42
69737;BME280;64476;55.004;73.342;2022-12-24T03:27:47;101629.72;;;0.51;58.80
69737;BME280;64476;55.004;73.342;2022-12-24T03:30:49;101620.25;;;0.53;58.75
69737;BME280;64476;55.004;73.342;2022-12-24T03:33:50;101627.91;;;0.54;58.94
69737;BME280;64476;55.004;73.342;2022-12-24T03:36:57;101629.63;;;0.54;58.68
69737;BME280;64476;55.004;73.342;2022-12-24T03:39:58;101632.16;;;0.55;59.02
69737;BME280;64476;55.004;73.342;2022-12-24T03:42:59;101634.63;;;0.58;58.81
69737;BME280;64476;55.004;73.342;2022-12-24T03:46:05;101637.19;;;0.60;58.63
69737;BME280;64476;55.004;73.342;2022-12-24T03:49:07;101638.84;;;0.61;59.18
69737;BME280;64476;55.004;73.342;2022-12-24T03:52:08;101645.59;;;0.65;58.64
69737;BME280;64476;55.004;73.342;2022-12-24T03:55:10;101643.06;;;0.63;59.51
69737;BME280;64476;55.004;73.342;2022-12-24T03:58:12;101653.44;;;0.60;58.92
69737;BME280;64476;55.004;73.342;2022-12-24T04:01:14;101650.91;;;0.59;59.24
69737;BME280;64476;55.004;73.342;2022-12-24T04:04:25;101661.16;;;0.60;59.33
69737;BME280;64476;55.004;73.342;2022-12-24T04:07:26;101658.53;;;0.62;59.61
69737;BME280;64476;55.004;73.342;2022-12-24T04:10:29;101662.69;;;0.66;59.22
69737;BME280;64476;55.004;73.342;2022-12-24T04:13:31;101661.72;;;0.70;59.35
69737;BME280;64476;55.004;73.342;2022-12-24T04:16:32;101669.34;;;0.73;58.92
69737;BME280;64476;55.004;73.342;2022-12-24T04:19:34;101668.41;;;0.76;58.91
69737;BME280;64476;55.004;73.342;2022-12-24T04:22:35;101668.28;;;0.80;59.22
69737;BME280;64476;55.004;73.342;2022-12-24T04:25:36;101667.34;;;0.83;59.11
69737;BME280;64476;55.004;73.342;2022-12-24T04:28:38;101668.13;;;0.86;58.83
69737;BME280;64476;55.004;73.342;2022-12-24T04:31:42;101665.41;;;0.91;58.72
69737;BME280;64476;55.004;73.342;2022-12-24T04:34:43;101667.00;;;0.95;59.16
69737;BME280;64476;55.004;73.342;2022-12-24T04:37:47;101624.81;;;0.72;58.58
69737;BME280;64476;55.004;73.342;2022-12-24T04:41:05;101672.09;;;0.96;59.13
69737;BME280;64476;55.004;73.342;2022-12-24T04:44:14;101673.69;;;1.01;58.84
69737;BME280;64476;55.004;73.342;2022-12-24T04:47:15;101672.78;;;1.03;59.19
69737;BME280;64476;55.004;73.342;2022-12-24T04:50:17;101676.19;;;1.04;59.26
69737;BME280;64476;55.004;73.342;2022-12-24T04:53:18;101677.78;;;1.06;59.15
69737;BME280;64476;55.004;73.342;2022-12-24T04:56:28;101685.34;;;1.12;59.35
69737;BME280;64476;55.004;73.342;2022-12-24T04:59:29;101686.22;;;1.11;59.29
69737;BME280;64476;55.004;73.342;2022-12-24T05:06:07;101693.75;;;1.17;59.08
69737;BME280;64476;55.004;73.342;2022-12-24T05:09:09;101691.09;;;1.20;58.87
69737;BME280;64476;55.004;73.342;2022-12-24T05:12:14;101695.16;;;1.28;58.78
69737;BME280;64476;55.004;73.342;2022-12-24T05:15:15;101702.84;;;1.29;58.86
69737;BME280;64476;55.004;73.342;2022-12-24T05:18:16;101705.22;;;1.35;58.86
69737;BME280;64476;55.004;73.342;2022-12-24T05:21:19;101705.13;;;1.38;59.23
69737;BME280;64476;55.004;73.342;2022-12-24T05:24:21;101699.06;;;1.41;58.66
69737;BME280;64476;55.004;73.342;2022-12-24T05:27:47;101693.75;;;1.45;58.79
69737;BME280;64476;55.004;73.342;2022-12-24T05:30:53;101698.72;;;1.52;58.61
69737;BME280;64476;55.004;73.342;2022-12-24T05:34:04;101694.25;;;1.57;58.68
69737;BME280;64476;55.004;73.342;2022-12-24T05:37:12;101698.31;;;1.64;58.98
69737;BME280;64476;55.004;73.342;2022-12-24T05:40:24;101699.88;;;1.69;58.52
69737;BME280;64476;55.004;73.342;2022-12-24T05:43:30;101705.75;;;1.73;58.71
69737;BME280;64476;55.004;73.342;2022-12-24T05:46:32;101701.47;;;1.72;58.84
69737;BME280;64476;55.004;73.342;2022-12-24T05:49:41;101698.75;;;1.77;58.87
69737;BME280;64476;55.004;73.342;2022-12-24T05:52:47;101703.81;;;1.80;59.17
69737;BME280;64476;55.004;73.342;2022-12-24T05:55:48;101713.13;;;1.84;58.79
69737;BME280;64476;55.004;73.342;2022-12-24T05:58:54;101708.78;;;1.86;58.56
69737;BME280;64476;55.004;73.342;2022-12-24T06:01:56;101718.97;;;1.89;58.90
69737;BME280;64476;55.004;73.342;2022-12-24T06:04:57;101705.03;;;1.94;58.45
69737;BME280;64476;55.004;73.342;2022-12-24T06:08:02;101711.84;;;1.97;58.43
69737;BME280;64476;55.004;73.342;2022-12-24T06:11:10;101709.19;;;1.99;58.75
69737;BME280;64476;55.004;73.342;2022-12-24T06:14:12;101718.47;;;2.04;58.22
69737;BME280;64476;55.004;73.342;2022-12-24T06:17:13;101720.25;;;2.02;58.28
69737;BME280;64476;55.004;73.342;2022-12-24T06:20:14;101727.13;;;2.02;58.63
69737;BME280;64476;55.004;73.342;2022-12-24T06:23:21;101731.50;;;2.00;58.15
69737;BME280;64476;55.004;73.342;2022-12-24T06:26:28;101735.84;;;1.98;58.89
69737;BME280;64476;55.004;73.342;2022-12-24T06:29:29;101744.38;;;2.00;58.77
69737;BME280;64476;55.004;73.342;2022-12-24T06:32:31;101737.41;;;2.03;58.40
69737;BME280;64476;55.004;73.342;2022-12-24T06:35:38;101742.56;;;2.03;58.48
69737;BME280;64476;55.004;73.342;2022-12-24T06:38:49;101737.66;;;1.96;58.98
69737;BME280;64476;55.004;73.342;2022-12-24T06:41:53;101753.28;;;1.89;58.88
69737;BME280;64476;55.004;73.342;2022-12-24T06:44:54;101751.56;;;1.90;59.02
69737;BME280;64476;55.004;73.342;2022-12-24T06:47:55;101751.47;;;1.93;58.50
69737;BME280;64476;55.004;73.342;2022-12-24T06:50:57;101745.25;;;1.99;58.49
69737;BME280;64476;55.004;73.342;2022-12-24T06:54:04;101749.47;;;2.01;58.90
69737;BME280;64476;55.004;73.342;2022-12-24T06:57:05;101739.91;;;2.05;58.79
69737;BME280;64476;55.004;73.342;2022-12-24T07:00:17;101740.84;;;2.02;58.43
69737;BME280;64476;55.004;73.342;2022-12-24T07:03:18;101752.06;;;2.01;58.95
69737;BME280;64476;55.004;73.342;2022-12-24T07:06:25;101753.63;;;2.05;58.62
69737;BME280;64476;55.004;73.342;2022-12-24T07:09:27;101760.53;;;2.05;58.86
69737;BME280;64476;55.004;73.342;2022-12-24T07:12:35;101755.22;;;2.09;58.54
69737;BME280;64476;55.004;73.342;2022-12-24T07:15:37;101753.78;;;2.01;58.71
69737;BME280;64476;55.004;73.342;2022-12-24T07:18:38;101758.38;;;1.91;59.31
69737;BME280;64476;55.004;73.342;2022-12-24T07:21:39;101754.94;;;1.92;58.78
69737;BME280;64476;55.004;73.342;2022-12-24T07:24:41;101761.13;;;1.86;59.04
69737;BME280;64476;55.004;73.342;2022-12-24T07:27:47;101761.09;;;1.88;59.11
69737;BME280;64476;55.004;73.342;2022-12-24T07:30:49;101759.38;;;1.87;59.27
69737;BME280;64476;55.004;73.342;2022-12-24T07:33:52;101759.28;;;1.90;58.86
69737;BME280;64476;55.004;73.342;2022-12-24T07:36:59;101763.59;;;1.89;59.31
69737;BME280;64476;55.004;73.342;2022-12-24T07:40:05;101764.53;;;1.87;59.08
69737;BME280;64476;55.004;73.342;2022-12-24T07:43:15;101770.41;;;1.92;58.90
69737;BME280;64476;55.004;73.342;2022-12-24T07:46:18;101772.00;;;1.94;59.12
69737;BME280;64476;55.004;73.342;2022-12-24T07:52:54;101765.78;;;2.02;58.31
69737;BME280;64476;55.004;73.342;2022-12-24T07:55:55;101741.22;;;1.91;58.67
69737;BME280;64476;55.004;73.342;2022-12-24T07:58:57;101769.81;;;2.10;58.81
69737;BME280;64476;55.004;73.342;2022-12-24T08:01:58;101771.28;;;2.17;58.86
69737;BME280;64476;55.004;73.342;2022-12-24T08:05:10;101773.69;;;2.22;58.55
69737;BME280;64476;55.004;73.342;2022-12-24T08:08:16;101764.13;;;2.26;58.58
69737;BME280;64476;55.004;73.342;2022-12-24T08:11:17;101769.19;;;2.29;58.00
69737;BME280;64476;55.004;73.342;2022-12-24T08:14:29;101777.75;;;2.29;58.23
69737;BME280;64476;55.004;73.342;2022-12-24T08:17:35;101776.75;;;2.33;58.14
69737;BME280;64476;55.004;73.342;2022-12-24T08:20:38;101771.50;;;2.36;58.39
69737;BME280;64476;55.004;73.342;2022-12-24T08:23:40;101776.50;;;2.41;58.08
69737;BME280;64476;55.004;73.342;2022-12-24T08:26:41;101777.31;;;2.43;57.85
69737;BME280;64476;55.004;73.342;2022-12-24T08:29:49;101775.59;;;2.42;57.89
69737;BME280;64476;55.004;73.342;2022-12-24T08:32:53;101779.91;;;2.41;57.80
69737;BME280;64476;55.004;73.342;2022-12-24T08:35:55;101786.81;;;2.41;57.72
69737;BME280;64476;55.004;73.342;2022-12-24T08:39:05;101782.47;;;2.43;57.88
69737;BME280;64476;55.004;73.342;2022-12-24T08:42:08;101781.09;;;2.33;58.11
69737;BME280;64476;55.004;73.342;2022-12-24T08:45:10;101796.94;;;2.21;58.06
69737;BME280;64476;55.004;73.342;2022-12-24T08:48:13;101788.50;;;2.15;57.90
69737;BME280;64476;55.004;73.342;2022-12-24T08:51:14;101781.59;;;2.17;58.22
69737;BME280;64476;55.004;73.342;2022-12-24T08:54:16;101786.53;;;2.24;57.80
69737;BME280;64476;55.004;73.342;2022-12-24T08:57:17;101780.38;;;2.28;57.81
69737;BME280;64476;55.004;73.342;2022-12-24T09:00:52;101789.91;;;2.26;57.83
69737;BME280;64476;55.004;73.342;2022-12-24T09:04:00;101800.16;;;2.27;57.88
69737;BME280;64476;55.004;73.342;2022-12-24T09:07:01;101790.69;;;2.28;57.77
69737;BME280;64476;55.004;73.342;2022-12-24T09:10:03;101794.16;;;2.27;57.74
69737;BME280;64476;55.004;73.342;2022-12-24T09:13:15;101794.41;;;2.19;57.60
69737;BME280;64476;55.004;73.342;2022-12-24T09:16:20;101793.47;;;2.22;57.78
69737;BME280;64476;55.004;73.342;2022-12-24T09:19:34;101796.31;;;2.14;58.16
69737;BME280;64476;55.004;73.342;2022-12-24T09:22:36;101786.84;;;2.14;57.62
69737;BME280;64476;55.004;73.342;2022-12-24T09:25:50;101798.88;;;2.14;57.86
69737;BME280;64476;55.004;73.342;2022-12-24T09:29:02;101803.22;;;2.12;57.78
69737;BME280;64476;55.004;73.342;2022-12-24T09:32:14;101802.50;;;2.08;57.73
69737;BME280;64476;55.004;73.342;2022-12-24T09:35:27;101804.16;;;2.09;58.05
69737;BME280;64476;55.004;73.342;2022-12-24T09:38:32;101814.72;;;2.02;58.23
69737;BME280;64476;55.004;73.342;2022-12-24T09:41:40;101802.16;;;1.91;58.29
69737;BME280;64476;55.004;73.342;2022-12-24T09:44:51;101806.56;;;1.87;58.09
69737;BME280;64476;55.004;73.342;2022-12-24T09:48:00;101813.47;;;1.87;57.93
69737;BME280;64476;55.004;73.342;2022-12-24T09:51:07;101814.22;;;1.90;57.99
69737;BME280;64476;55.004;73.342;2022-12-24T09:57:48;101816.50;;;2.00;58.07
69737;BME280;64476;55.004;73.342;2022-12-24T10:00:51;101825.00;;;2.03;57.92
69737;BME280;64476;55.004;73.342;2022-12-24T10:03:53;101827.59;;;2.02;57.97
69737;BME280;64476;55.004;73.342;2022-12-24T10:10:17;101825.22;;;1.96;57.84
69737;BME280;64476;55.004;73.342;2022-12-24T10:22:43;101827.81;;;1.96;57.80
69737;BME280;64476;55.004;73.342;2022-12-24T10:32:26;101840.06;;;1.87;58.16
69737;BME280;64476;55.004;73.342;2022-12-24T10:35:31;101840.88;;;1.89;57.78
69737;BME280;64476;55.004;73.342;2022-12-24T10:38:34;101840.72;;;1.94;57.81
69737;BME280;64476;55.004;73.342;2022-12-24T10:41:36;101841.47;;;1.98;57.68
69737;BME280;64476;55.004;73.342;2022-12-24T10:44:37;101845.72;;;1.99;57.49
69737;BME280;64476;55.004;73.342;2022-12-24T10:47:50;101850.78;;;2.02;57.76
69737;BME280;64476;55.004;73.342;2022-12-24T10:51:01;101852.50;;;2.01;58.09
69737;BME280;64476;55.004;73.342;2022-12-24T10:57:57;101854.19;;;2.02;57.68
69737;BME280;64476;55.004;73.342;2022-12-24T11:01:46;101850.66;;;2.06;57.53
69737;BME280;64476;55.004;73.342;2022-12-24T11:04:48;101849.75;;;2.07;57.97
69737;BME280;64476;55.004;73.342;2022-12-24T11:11:16;101855.69;;;2.09;57.32
69737;BME280;64476;55.004;73.342;2022-12-24T11:14:20;101856.44;;;2.13;57.41
69737;BME280;64476;55.004;73.342;2022-12-24T11:17:22;101854.81;;;2.10;57.63
69737;BME280;64476;55.004;73.342;2022-12-24T11:20:25;101852.25;;;2.10;57.15
69737;BME280;64476;55.004;73.342;2022-12-24T11:23:59;101857.53;;;2.06;57.14
69737;BME280;64476;55.004;73.342;2022-12-24T11:30:30;101857.44;;;2.09;57.72
69737;BME280;64476;55.004;73.342;2022-12-24T11:37:21;101863.47;;;2.08;57.37
69737;BME280;64476;55.004;73.342;2022-12-24T11:40:30;101869.47;;;2.08;57.26
69737;BME280;64476;55.004;73.342;2022-12-24T11:43:41;101861.06;;;2.03;57.46
69737;BME280;64476;55.004;73.342;2022-12-24T11:46:45;101865.31;;;2.04;57.26
69737;BME280;64476;55.004;73.342;2022-12-24T11:49:52;101877.34;;;2.04;57.50
69737;BME280;64476;55.004;73.342;2022-12-24T11:56:05;101869.78;;;1.99;57.91
69737;BME280;64476;55.004;73.342;2022-12-24T11:59:14;101873.13;;;2.01;57.37
69737;BME280;64476;55.004;73.342;2022-12-24T12:05:26;101879.19;;;2.00;56.77
69737;BME280;64476;55.004;73.342;2022-12-24T12:08:29;101880.84;;;2.01;57.62
69737;BME280;64476;55.004;73.342;2022-12-24T12:11:43;101881.75;;;2.00;57.87
69737;BME280;64476;55.004;73.342;2022-12-24T12:14:48;101880.00;;;2.01;57.48
69737;BME280;64476;55.004;73.342;2022-12-24T12:18:14;101886.84;;;2.02;57.38
69737;BME280;64476;55.004;73.342;2022-12-24T12:21:17;101873.94;;;2.03;57.50
69737;BME280;64476;55.004;73.342;2022-12-24T12:24:32;101885.22;;;1.99;56.89
69737;BME280;64476;55.004;73.342;2022-12-24T12:27:48;101882.66;;;1.99;57.35
69737;BME280;64476;55.004;73.342;2022-12-24T12:30:59;101874.19;;;1.96;57.01
69737;BME280;64476;55.004;73.342;2022-12-24T12:37:57;101880.47;;;1.85;57.18
69737;BME280;64476;55.004;73.342;2022-12-24T12:50:44;101890.78;;;1.85;57.28
69737;BME280;64476;55.004;73.342;2022-12-24T12:54:04;101888.22;;;1.84;57.40
69737;BME280;64476;55.004;73.342;2022-12-24T13:01:26;101890.97;;;1.79;57.23
69737;BME280;64476;55.004;73.342;2022-12-24T13:05:04;101895.31;;;1.77;57.92
69737;BME280;64476;55.004;73.342;2022-12-24T13:08:21;101890.25;;;1.74;57.18
69737;BME280;64476;55.004;73.342;2022-12-24T13:21:35;101901.75;;;1.62;58.23
69737;BME280;64476;55.004;73.342;2022-12-24T13:24:38;101886.25;;;1.64;58.44
69737;BME280;64476;55.004;73.342;2022-12-24T13:27:46;101886.13;;;1.68;58.11
69737;BME280;64476;55.004;73.342;2022-12-24T13:30:49;101877.47;;;1.71;57.87
69737;BME280;64476;55.004;73.342;2022-12-24T13:33:51;101897.94;;;1.76;57.38
69737;BME280;64476;55.004;73.342;2022-12-24T13:37:00;101891.84;;;1.78;57.43
69737;BME280;64476;55.004;73.342;2022-12-24T13:43:07;101895.94;;;1.85;57.60
69737;BME280;64476;55.004;73.342;2022-12-24T13:46:13;101895.78;;;1.90;57.82
69737;BME280;64476;55.004;73.342;2022-12-24T13:49:52;101893.13;;;1.93;57.33
69737;BME280;64476;55.004;73.342;2022-12-24T13:52:54;101895.75;;;1.91;57.42
69737;BME280;64476;55.004;73.342;2022-12-24T13:55:57;101899.13;;;1.93;57.66
69737;BME280;64476;55.004;73.342;2022-12-24T14:03:02;101897.44;;;1.92;57.22
69737;BME280;64476;55.004;73.342;2022-12-24T14:06:06;101903.50;;;1.91;57.73
69737;BME280;64476;55.004;73.342;2022-12-24T14:12:30;101896.94;;;1.80;57.45
69737;BME280;64476;55.004;73.342;2022-12-24T14:18:58;101898.00;;;1.73;57.89
69737;BME280;64476;55.004;73.342;2022-12-24T14:25:19;101904.13;;;1.68;57.49
69737;BME280;64476;55.004;73.342;2022-12-24T14:28:34;101899.13;;;1.64;57.61
69737;BME280;64476;55.004;73.342;2022-12-24T14:31:48;101899.22;;;1.61;57.40
69737;BME280;64476;55.004;73.342;2022-12-24T14:38:14;101895.22;;;1.51;58.04
69737;BME280;64476;55.004;73.342;2022-12-24T14:45:01;101897.69;;;1.54;58.13
69737;BME280;64476;55.004;73.342;2022-12-24T14:54:39;101906.25;;;1.56;57.80
69737;BME280;64476;55.004;73.342;2022-12-24T14:57:46;101901.97;;;1.55;58.00
69737;BME280;64476;55.004;73.342;2022-12-24T15:00:59;101894.34;;;1.52;57.76
69737;BME280;64476;55.004;73.342;2022-12-24T15:04:02;101889.13;;;1.53;58.00
69737;BME280;64476;55.004;73.342;2022-12-24T15:10:45;101888.25;;;1.54;57.83
69737;BME280;64476;55.004;73.342;2022-12-24T15:13:53;101887.53;;;1.49;58.46
69737;BME280;64476;55.004;73.342;2022-12-24T15:16:58;101887.69;;;1.44;58.27
69737;BME280;64476;55.004;73.342;2022-12-24T15:20:02;101884.22;;;1.45;58.06
69737;BME280;64476;55.004;73.342;2022-12-24T15:23:04;101879.00;;;1.47;57.96
69737;BME280;64476;55.004;73.342;2022-12-24T15:26:07;101869.44;;;1.52;58.11
69737;BME280;64476;55.004;73.342;2022-12-24T15:29:22;101866.78;;;1.55;57.79
69737;BME280;64476;55.004;73.342;2022-12-24T15:32:24;101868.31;;;1.61;58.24
69737;BME280;64476;55.004;73.342;2022-12-24T15:39:33;101879.22;;;1.71;58.18
69737;BME280;64476;55.004;73.342;2022-12-24T15:42:34;101870.63;;;1.70;57.69
69737;BME280;64476;55.004;73.342;2022-12-24T15:45:46;101862.84;;;1.73;57.75
69737;BME280;64476;55.004;73.342;2022-12-24T15:48:59;101797.91;;;1.34;57.71
69737;BME280;64476;55.004;73.342;2022-12-24T15:52:12;101861.84;;;1.77;57.48
69737;BME280;64476;55.004;73.342;2022-12-24T15:58:37;101854.91;;;1.79;57.85
69737;BME280;64476;55.004;73.342;2022-12-24T16:01:49;101854.06;;;1.79;57.63
69737;BME280;64476;55.004;73.342;2022-12-24T16:04:51;101855.75;;;1.80;57.35
69737;BME280;64476;55.004;73.342;2022-12-24T16:08:05;101862.72;;;1.76;57.48
69737;BME280;64476;55.004;73.342;2022-12-24T16:17:56;101848.09;;;1.49;57.88
69737;BME280;64476;55.004;73.342;2022-12-24T16:20:58;101846.41;;;1.48;57.67
69737;BME280;64476;55.004;73.342;2022-12-24T16:24:13;101844.09;;;1.38;58.18
69737;BME280;64476;55.004;73.342;2022-12-24T16:27:15;101852.19;;;1.25;58.72
69737;BME280;64476;55.004;73.342;2022-12-24T16:30:20;101842.94;;;1.17;58.30
69737;BME280;64476;55.004;73.342;2022-12-24T16:33:22;101853.22;;;1.19;58.63
69737;BME280;64476;55.004;73.342;2022-12-24T16:36:26;101859.88;;;1.26;58.81
69737;BME280;64476;55.004;73.342;2022-12-24T16:39:38;101859.16;;;1.21;57.99
69737;BME280;64476;55.004;73.342;2022-12-24T16:42:46;101849.81;;;1.18;59.08
69737;BME280;64476;55.004;73.342;2022-12-24T16:46:04;101850.47;;;1.25;58.40
69737;BME280;64476;55.004;73.342;2022-12-24T16:49:09;101842.84;;;1.22;58.60
69737;BME280;64476;55.004;73.342;2022-12-24T16:52:19;101843.97;;;1.12;58.94
69737;BME280;64476;55.004;73.342;2022-12-24T16:55:33;101836.13;;;1.16;58.28
69737;BME280;64476;55.004;73.342;2022-12-24T16:58:35;101833.63;;;1.15;58.16
69737;BME280;64476;55.004;73.342;2022-12-24T17:01:36;101833.41;;;1.21;58.60
69737;BME280;64476;55.004;73.342;2022-12-24T17:05:16;101832.63;;;1.19;58.88
69737;BME280;64476;55.004;73.342;2022-12-24T17:08:56;101827.66;;;1.13;58.03
69737;BME280;64476;55.004;73.342;2022-12-24T17:11:57;101824.25;;;1.12;58.69
69737;BME280;64476;55.004;73.342;2022-12-24T17:15:08;101825.00;;;1.16;58.71
69737;BME280;64476;55.004;73.342;2022-12-24T17:18:10;101826.81;;;1.12;58.14
69737;BME280;64476;55.004;73.342;2022-12-24T17:21:22;101832.09;;;1.08;58.66
69737;BME280;64476;55.004;73.342;2022-12-24T17:24:24;101826.94;;;1.08;58.82
69737;BME280;64476;55.004;73.342;2022-12-24T17:27:34;101833.00;;;1.05;58.58
69737;BME280;64476;55.004;73.342;2022-12-24T17:30:38;101839.94;;;1.03;58.29
69737;BME280;64476;55.004;73.342;2022-12-24T17:33:39;101826.22;;;1.03;58.68
69737;BME280;64476;55.004;73.342;2022-12-24T17:36:51;101829.06;;;0.92;59.03
69737;BME280;64476;55.004;73.342;2022-12-24T17:39:52;101830.72;;;0.94;59.04
69737;BME280;64476;55.004;73.342;2022-12-24T17:42:54;101824.63;;;0.99;58.65
69737;BME280;64476;55.004;73.342;2022-12-24T17:45:57;101816.78;;;1.03;58.85
69737;BME280;64476;55.004;73.342;2022-12-24T17:48:59;101819.25;;;1.06;59.29
69737;BME280;64476;55.004;73.342;2022-12-24T17:52:00;101822.66;;;1.07;58.77
69737;BME280;64476;55.004;73.342;2022-12-24T17:55:03;101821.03;;;1.04;59.28
69737;BME280;64476;55.004;73.342;2022-12-24T17:58:04;101818.56;;;1.01;58.86
69737;BME280;64476;55.004;73.342;2022-12-24T18:01:15;101807.56;;;0.96;59.09
69737;BME280;64476;55.004;73.342;2022-12-24T18:04:53;101806.03;;;0.89;58.89
69737;BME280;64476;55.004;73.342;2022-12-24T18:08:03;101803.47;;;0.89;58.92
69737;BME280;64476;55.004;73.342;2022-12-24T18:14:17;101804.25;;;0.91;58.48
69737;BME280;64476;55.004;73.342;2022-12-24T18:17:20;101811.13;;;0.90;58.99
69737;BME280;64476;55.004;73.342;2022-12-24T18:20:21;101812.72;;;0.96;59.09
69737;BME280;64476;55.004;73.342;2022-12-24T18:23:23;101811.75;;;0.99;59.34
69737;BME280;64476;55.004;73.342;2022-12-24T18:26:25;101813.41;;;1.01;59.06
69737;BME280;64476;55.004;73.342;2022-12-24T18:29:31;101808.44;;;0.95;59.07
69737;BME280;64476;55.004;73.342;2022-12-24T18:36:06;101825.56;;;0.63;59.55
69737;BME280;64476;55.004;73.342;2022-12-24T18:39:44;101816.81;;;0.70;59.37
69737;BME280;64476;55.004;73.342;2022-12-24T18:46:20;101816.53;;;0.81;59.27
69737;BME280;64476;55.004;73.342;2022-12-24T18:49:27;101804.34;;;0.55;60.15
69737;BME280;64476;55.004;73.342;2022-12-24T18:52:29;101815.91;;;0.39;59.66